Time;durP1;ratioP1;P1;durP2;ratioP2;P2;SDS_P1;SDS_P2;PMS_P1;PMS_P2;Temp;Humidity;BMP_temperature;BMP_pressure;BME280_temperature;BME280_humidity;BME280_pressure;Samples;Min_cycle;Max_cycle;Signal;HPM_P1;HPM_P2
2022/02/01 00:03:02;;;;;;;1.50;1.50;;;;;;;1.26;61.14;99400.09;103554;1284;139492;-75
2022/02/01 00:08:31;;;;;;;1.60;1.60;;;;;;;1.20;61.26;99402.04;103526;1284;138856;-75
2022/02/01 00:13:40;;;;;;;1.60;1.60;;;;;;;1.14;61.30;99399.95;103666;1284;95165;-76
2022/02/01 00:37:35;;;;;;;1.70;1.70;;;;;;;0.94;61.76;99411.22;103570;1284;95791;-77
2022/02/01 00:40:10;;;;;;;1.60;1.60;;;;;;;0.99;61.58;99420.98;103763;1284;140347;-75
2022/02/01 00:42:38;;;;;;;1.80;1.80;;;;;;;1.03;61.51;99421.67;103585;1284;110396;-77
2022/02/01 00:45:06;;;;;;;1.90;1.90;;;;;;;0.96;61.47;99422.77;103452;1284;140757;-76
2022/02/01 00:47:34;;;;;;;1.80;1.80;;;;;;;1.00;61.68;99424.84;103506;1284;109016;-75
2022/02/01 00:50:02;;;;;;;1.60;1.60;;;;;;;1.06;61.66;99428.33;103598;1284;140227;-77
2022/02/01 00:52:31;;;;;;;1.60;1.60;;;;;;;1.08;61.22;99435.30;103482;1284;95686;-77
2022/02/01 00:54:59;;;;;;;1.60;1.60;;;;;;;1.03;61.25;99440.04;103608;1284;110503;-75
2022/02/01 00:57:28;;;;;;;1.70;1.70;;;;;;;1.00;61.53;99435.86;103339;1284;140119;-75
2022/02/01 00:59:55;;;;;;;1.40;1.40;;;;;;;1.05;61.69;99432.52;103617;1284;109394;-75
2022/02/01 01:02:23;;;;;;;1.60;1.60;;;;;;;1.12;61.49;99430.05;103527;1284;139438;-76
2022/02/01 01:04:51;;;;;;;1.50;1.50;;;;;;;1.14;61.55;99428.98;103597;1284;96761;-76
2022/02/01 01:07:19;;;;;;;1.60;1.60;;;;;;;1.11;61.23;99429.17;103636;1284;110276;-77
2022/02/01 01:09:47;;;;;;;1.70;1.70;;;;;;;1.04;61.30;99428.52;103374;1284;140501;-76
2022/02/01 01:12:16;;;;;;;1.50;1.50;;;;;;;0.98;61.22;99421.88;103582;1284;107267;-75
2022/02/01 01:15:01;;;;;;;1.60;1.60;;;;;;;1.00;61.34;99418.73;103472;1284;138272;-75
2022/02/01 01:44:50;;;;;;;1.60;1.60;;;;;;;0.71;61.63;99449.20;103350;1284;140983;-75
2022/02/01 01:53:32;;;;;;;2.00;2.00;;;;;;;0.64;61.72;99461.96;103472;1284;107606;-76
2022/02/01 01:55:53;;;;;;;1.80;1.80;;;;;;;0.68;61.53;99461.61;103366;1284;139403;-76
2022/02/01 01:58:25;;;;;;;1.70;1.70;;;;;;;0.65;61.32;99463.36;103553;1284;95496;-76
2022/02/01 02:03:23;;;;;;;1.80;1.80;;;;;;;0.62;61.43;99478.91;103271;1284;141875;-76
2022/02/01 02:05:51;;;;;;;1.70;1.70;;;;;;;0.62;61.45;99479.96;103514;1284;109425;-76
2022/02/01 02:08:19;;;;;;;1.80;1.80;;;;;;;0.69;61.57;99485.02;103486;1284;140848;-76
2022/02/01 02:10:55;;;;;;;1.80;1.80;;;;;;;0.76;61.53;99482.92;103451;1284;95300;-75
2022/02/01 02:16:02;;;;;;;1.70;1.70;;;;;;;0.70;60.85;99486.24;103353;1284;139901;-75
2022/02/01 02:18:33;;;;;;;1.60;1.60;;;;;;;0.68;61.13;99491.66;103470;1284;108545;-77
2022/02/01 02:21:02;;;;;;;1.80;1.80;;;;;;;0.70;61.57;99496.02;103437;1284;140834;-78
2022/02/01 02:23:30;;;;;;;1.80;1.80;;;;;;;0.79;61.52;99500.73;103574;1284;95166;-76
2022/02/01 02:26:01;;;;;;;1.70;1.70;;;;;;;0.88;61.17;99508.06;103397;1284;140661;-76
2022/02/01 02:28:28;;;;;;;1.80;1.80;;;;;;;0.83;60.86;99507.55;103468;1284;99758;-75
2022/02/01 02:30:56;;;;;;;1.70;1.70;;;;;;;0.77;60.93;99510.70;103419;1284;109198;-75
2022/02/01 02:33:24;;;;;;;1.90;1.90;;;;;;;0.73;60.84;99514.36;103314;1284;140590;-75
2022/02/01 02:35:59;;;;;;;1.70;1.70;;;;;;;0.63;60.93;99517.88;103381;1287;95191;-76
2022/02/01 02:38:33;;;;;;;1.60;1.60;;;;;;;0.55;61.21;99519.61;103404;1284;140267;-76
2022/02/01 02:46:44;;;;;;;1.70;1.70;;;;;;;0.43;61.52;99519.42;103492;1284;95856;-75
2022/02/01 02:49:19;;;;;;;1.60;1.60;;;;;;;0.45;61.84;99522.75;103461;1285;96863;-75
2022/02/01 02:51:47;;;;;;;1.50;1.50;;;;;;;0.57;61.93;99526.95;103455;1284;140316;-76
2022/02/01 02:54:20;;;;;;;1.70;1.70;;;;;;;0.60;61.62;99530.97;103509;1284;98485;-75
2022/02/01 02:56:51;;;;;;;1.70;1.70;;;;;;;0.64;61.41;99526.59;103366;1284;139866;-79
2022/02/01 02:59:21;;;;;;;1.80;1.80;;;;;;;0.63;61.48;99529.74;103462;1284;95538;-76
2022/02/01 03:01:49;;;;;;;1.60;1.60;;;;;;;0.63;61.53;99530.44;103477;1284;95626;-76
2022/02/01 03:04:19;;;;;;;1.80;1.80;;;;;;;0.58;61.42;99527.83;103532;1285;139744;-75
2022/02/01 03:06:48;;;;;;;1.60;1.60;;;;;;;0.60;61.58;99522.23;103508;1284;99992;-76
2022/02/01 03:09:18;;;;;;;1.60;1.60;;;;;;;0.62;61.56;99519.45;103497;1284;138464;-76
2022/02/01 03:11:47;;;;;;;1.60;1.60;;;;;;;0.67;61.47;99516.64;103632;1284;95760;-76
2022/02/01 03:19:47;;;;;;;1.60;1.60;;;;;;;0.78;61.24;99519.61;102746;1290;109651;-75
2022/02/01 03:20:16;;;;;;;1.60;1.60;;;;;;;0.80;61.04;99525.02;102697;1290;140292;-77
2022/02/01 03:22:43;;;;;;;1.70;1.70;;;;;;;0.71;60.93;99527.64;103161;1284;109405;-77
2022/02/01 03:25:13;;;;;;;1.70;1.70;;;;;;;0.64;61.29;99533.93;103453;1284;95919;-76
2022/02/01 03:27:40;;;;;;;1.50;1.50;;;;;;;0.66;61.23;99539.00;103389;1284;140040;-76
2022/02/01 03:30:09;;;;;;;1.50;1.50;;;;;;;0.69;61.07;99546.52;103480;1284;110569;-76
2022/02/01 03:32:37;;;;;;;1.60;1.60;;;;;;;0.60;61.19;99556.63;103442;1284;140018;-75
2022/02/01 03:35:05;;;;;;;1.60;1.60;;;;;;;0.57;61.52;99560.65;103431;1284;109406;-81
2022/02/01 03:37:33;;;;;;;1.60;1.60;;;;;;;0.58;61.75;99557.86;103467;1284;95654;-74
2022/02/01 03:40:01;;;;;;;1.50;1.50;;;;;;;0.62;61.68;99561.35;103405;1284;139989;-75
2022/02/01 03:42:28;;;;;;;1.60;1.60;;;;;;;0.61;61.57;99562.41;103530;1284;109624;-76
2022/02/01 03:44:56;;;;;;;1.60;1.60;;;;;;;0.59;62.00;99566.78;103416;1284;138770;-77
2022/02/01 03:47:24;;;;;;;1.80;1.80;;;;;;;0.55;61.81;99567.83;103465;1284;109766;-76
2022/02/01 03:49:54;;;;;;;1.50;1.50;;;;;;;0.49;61.98;99563.09;103502;1284;95409;-75
2022/02/01 03:52:22;;;;;;;1.50;1.50;;;;;;;0.54;62.06;99560.31;103401;1284;138653;-75
2022/02/01 03:54:50;;;;;;;1.60;1.60;;;;;;;0.53;61.99;99553.15;103322;1284;110184;-76
2022/02/01 03:57:18;;;;;;;1.50;1.50;;;;;;;0.49;62.06;99551.04;103388;1284;139494;-76
2022/02/01 03:59:46;;;;;;;1.60;1.60;;;;;;;0.52;62.29;99554.72;103467;1284;108471;-75
2022/02/01 04:02:15;;;;;;;1.60;1.60;;;;;;;0.49;61.94;99558.02;103377;1284;140817;-75
2022/02/01 04:04:46;;;;;;;1.60;1.60;;;;;;;0.47;61.99;99561.52;103511;1284;95624;-79
2022/02/01 04:07:14;;;;;;;1.70;1.70;;;;;;;0.43;62.11;99565.02;103647;1284;109303;-76
2022/02/01 04:09:42;;;;;;;1.80;1.80;;;;;;;0.40;62.23;99557.50;103424;1284;140005;-76
2022/02/01 04:12:10;;;;;;;1.80;1.80;;;;;;;0.33;62.42;99559.76;103456;1284;109405;-75
2022/02/01 04:14:37;;;;;;;1.50;1.50;;;;;;;0.42;62.44;99562.91;103394;1284;139687;-75
2022/02/01 04:17:08;;;;;;;1.60;1.60;;;;;;;0.45;62.26;99556.11;103641;1284;95779;-80
2022/02/01 04:19:37;;;;;;;1.60;1.60;;;;;;;0.47;62.23;99552.78;103746;1284;110314;-75
2022/02/01 04:22:06;;;;;;;1.70;1.70;;;;;;;0.52;62.19;99545.11;103415;1284;139874;-76
2022/02/01 04:24:45;;;;;;;1.80;1.80;;;;;;;0.48;62.16;99544.59;103797;1284;108861;-77
2022/02/01 04:27:30;;;;;;;1.60;1.60;;;;;;;0.50;62.19;99542.33;103560;1284;139825;-77
2022/02/01 04:30:09;;;;;;;1.60;1.60;;;;;;;0.49;62.06;99537.95;103523;1284;95846;-77
2022/02/01 04:32:39;;;;;;;1.60;1.60;;;;;;;0.46;62.11;99532.88;103386;1284;139872;-78
2022/02/01 04:35:09;;;;;;;1.80;1.80;;;;;;;0.36;62.12;99537.58;103439;1285;98352;-77
2022/02/01 04:37:37;;;;;;;1.60;1.60;;;;;;;0.36;62.38;99538.98;103435;1284;108960;-77
2022/02/01 04:40:09;;;;;;;1.60;1.60;;;;;;;0.40;62.47;99537.77;103362;1284;140418;-78
2022/02/01 04:42:39;;;;;;;1.70;1.70;;;;;;;0.42;62.32;99533.92;103461;1284;95242;-78
2022/02/01 04:45:11;;;;;;;1.90;1.90;;;;;;;0.36;62.18;99537.06;103489;1284;138893;-75
2022/02/01 04:47:39;;;;;;;1.80;1.80;;;;;;;0.32;62.62;99535.83;103723;1284;98541;-75
2022/02/01 04:50:12;;;;;;;1.50;1.50;;;;;;;0.36;62.36;99536.71;103593;1284;139428;-76
2022/02/01 04:52:43;;;;;;;1.70;1.70;;;;;;;0.34;62.51;99546.14;103522;1285;95544;-80
2022/02/01 04:55:12;;;;;;;1.80;1.80;;;;;;;0.38;62.48;99552.27;103521;1284;95665;-76
2022/02/01 04:57:53;;;;;;;1.80;1.80;;;;;;;0.34;62.49;99548.23;103267;1285;139461;-76
2022/02/01 05:00:30;;;;;;;1.60;1.60;;;;;;;0.35;62.42;99546.49;103346;1285;98859;-78
2022/02/01 05:03:00;;;;;;;1.60;1.60;;;;;;;0.35;62.45;99541.77;103225;1285;139775;-76
2022/02/01 05:05:29;;;;;;;1.50;1.50;;;;;;;0.37;62.21;99554.35;103525;1284;95786;-76
2022/02/01 05:08:09;;;;;;;1.80;1.80;;;;;;;0.36;62.07;99556.45;103495;1284;95643;-75
2022/02/01 05:10:37;;;;;;;1.60;1.60;;;;;;;0.31;62.33;99562.20;103521;1284;138840;-75
2022/02/01 05:16:05;;;;;;;1.60;1.60;;;;;;;0.15;62.17;99569.50;103335;1284;139934;-75
2022/02/01 05:19:02;;;;;;;1.70;1.70;;;;;;;0.07;62.36;99567.03;103505;1284;95730;-76
2022/02/01 05:21:26;;;;;;;1.70;1.70;;;;;;;0.07;62.50;99563.53;103381;1284;140258;-76
2022/02/01 05:23:55;;;;;;;1.70;1.70;;;;;;;0.13;62.30;99564.08;103521;1284;110470;-77
2022/02/01 05:26:24;;;;;;;1.80;1.80;;;;;;;0.10;62.30;99565.13;103359;1284;140954;-75
2022/02/01 05:28:52;;;;;;;1.80;1.80;;;;;;;0.12;62.58;99568.08;103379;1285;108798;-78
2022/02/01 05:31:21;;;;;;;1.70;1.70;;;;;;;0.20;62.53;99570.56;103327;1287;95869;-75
2022/02/01 05:33:50;;;;;;;1.60;1.60;;;;;;;0.26;62.44;99566.91;103368;1285;139670;-71
2022/02/01 05:36:17;;;;;;;1.70;1.70;;;;;;;0.26;62.15;99566.73;103526;1284;110306;-76
2022/02/01 05:38:49;;;;;;;1.70;1.70;;;;;;;0.19;62.09;99570.38;103389;1287;140133;-76
2022/02/01 05:41:17;;;;;;;1.80;1.80;;;;;;;0.13;62.03;99571.59;103993;1284;109343;-75
2022/02/01 05:43:45;;;;;;;1.70;1.70;;;;;;;0.06;62.34;99576.27;103687;1285;95289;-76
2022/02/01 05:46:16;;;;;;;1.70;1.70;;;;;;;0.01;62.54;99576.09;103440;1284;140172;-80
2022/02/01 05:48:44;;;;;;;1.70;1.70;;;;;;;0.06;62.47;99585.02;103541;1284;109794;-77
2022/02/01 05:51:11;;;;;;;1.60;1.60;;;;;;;0.04;62.35;99590.23;103347;1284;140174;-76
2022/02/01 05:53:39;;;;;;;1.70;1.70;;;;;;;-0.01;62.36;99590.73;103501;1284;109495;-78
2022/02/01 05:56:07;;;;;;;1.70;1.70;;;;;;;-0.14;62.59;99594.35;103467;1284;95705;-75
2022/02/01 05:58:35;;;;;;;1.60;1.60;;;;;;;-0.07;62.83;99593.33;103406;1284;141567;-75
2022/02/01 06:01:03;;;;;;;1.70;1.70;;;;;;;-0.06;62.74;99591.77;103501;1284;107729;-76
2022/02/01 06:03:32;;;;;;;1.70;1.70;;;;;;;-0.01;62.87;99594.58;103411;1284;139334;-77
2022/02/01 06:06:02;;;;;;;2.00;2.00;;;;;;;-0.01;62.68;99600.87;103585;1284;107930;-76
2022/02/01 06:08:31;;;;;;;1.80;1.80;;;;;;;0.04;62.56;99602.27;103895;1284;139313;-77
2022/02/01 06:10:59;;;;;;;1.70;1.70;;;;;;;0.01;62.56;99602.09;103536;1284;95246;-78
2022/02/01 06:13:27;;;;;;;1.60;1.60;;;;;;;0.01;62.53;99602.61;103468;1284;110451;-77
2022/02/01 06:15:55;;;;;;;1.70;1.70;;;;;;;-0.02;62.52;99604.88;103479;1284;138521;-76
2022/02/01 06:18:22;;;;;;;1.70;1.70;;;;;;;-0.02;62.73;99608.89;103494;1284;109514;-76
2022/02/01 06:20:50;;;;;;;1.70;1.70;;;;;;;-0.05;62.54;99611.14;103376;1284;139826;-78
2022/02/01 06:23:18;;;;;;;1.70;1.70;;;;;;;-0.06;62.52;99615.33;103555;1285;95133;-76
2022/02/01 06:25:50;;;;;;;1.80;1.80;;;;;;;-0.07;62.53;99613.92;103570;1284;109441;-76
2022/02/01 06:28:20;;;;;;;1.90;1.90;;;;;;;-0.18;62.60;99614.93;103456;1284;140350;-76
2022/02/01 06:30:48;;;;;;;1.80;1.80;;;;;;;-0.19;62.93;99615.10;103563;1284;108365;-76
2022/02/01 06:33:17;;;;;;;1.60;1.60;;;;;;;-0.14;62.96;99611.98;103455;1284;140841;-76
2022/02/01 06:35:45;;;;;;;1.80;1.80;;;;;;;-0.08;62.72;99611.48;103632;1284;95253;-77
2022/02/01 06:38:14;;;;;;;1.70;1.70;;;;;;;-0.08;62.93;99603.45;103588;1284;110814;-76
2022/02/01 06:40:43;;;;;;;1.80;1.80;;;;;;;-0.09;63.03;99599.26;103394;1285;139920;-77
2022/02/01 06:43:12;;;;;;;1.80;1.80;;;;;;;-0.07;63.13;99596.13;103463;1284;108635;-77
2022/02/01 06:45:40;;;;;;;1.60;1.60;;;;;;;-0.03;63.02;99595.10;103396;1284;138764;-77
2022/02/01 06:48:08;;;;;;;1.70;1.70;;;;;;;0.02;63.42;99598.60;103629;1284;95418;-78
2022/02/01 06:50:42;;;;;;;1.80;1.80;;;;;;;0.02;63.14;99600.71;103470;1285;138050;-77
2022/02/01 06:53:10;;;;;;;1.80;1.80;;;;;;;0.01;63.34;99601.21;103586;1283;99876;-79
2022/02/01 06:58:13;;;;;;;1.60;1.60;;;;;;;0.01;63.41;99601.05;103356;1285;140431;-76
2022/02/01 07:00:41;;;;;;;1.60;1.60;;;;;;;0.08;63.49;99607.89;103513;1284;95560;-76
2022/02/01 07:03:09;;;;;;;1.70;1.70;;;;;;;0.01;63.42;99608.55;103444;1284;138917;-76
2022/02/01 07:05:38;;;;;;;1.70;1.70;;;;;;;0.06;63.68;99611.19;103564;1284;100612;-77
2022/02/01 07:08:06;;;;;;;1.70;1.70;;;;;;;0.12;63.59;99605.09;103507;1284;109470;-76
2022/02/01 07:10:34;;;;;;;1.70;1.70;;;;;;;0.18;63.54;99609.83;103427;1284;140225;-77
2022/02/01 07:13:02;;;;;;;2.20;2.10;;;;;;;0.15;63.37;99607.38;103439;1286;96420;-80
2022/02/01 07:15:30;;;;;;;2.00;2.00;;;;;;;0.13;63.49;99609.81;103386;1284;139862;-76
2022/02/01 07:17:57;;;;;;;1.70;1.70;;;;;;;0.18;63.54;99611.39;103606;1284;99451;-75
2022/02/01 07:20:26;;;;;;;1.70;1.70;;;;;;;0.24;63.52;99608.44;103461;1285;138545;-78
2022/02/01 07:22:54;;;;;;;2.20;2.10;;;;;;;0.26;63.62;99606.88;103466;1284;95263;-76
2022/02/01 07:27:53;;;;;;;1.70;1.70;;;;;;;0.30;63.28;99610.91;103632;1284;139396;-77
2022/02/01 07:30:24;;;;;;;1.50;1.50;;;;;;;0.26;63.35;99618.23;103756;1284;99867;-76
2022/02/01 07:32:54;;;;;;;1.70;1.70;;;;;;;0.21;63.39;99614.73;103492;1284;139552;-78
2022/02/01 07:35:24;;;;;;;1.70;1.70;;;;;;;0.20;63.49;99621.36;103555;1284;95273;-79
2022/02/01 07:37:54;;;;;;;1.70;1.70;;;;;;;0.25;63.69;99623.12;103661;1284;95252;-77
2022/02/01 07:40:22;;;;;;;1.80;1.80;;;;;;;0.40;63.94;99620.36;103463;1284;139167;-77
2022/02/01 07:42:50;;;;;;;1.70;1.70;;;;;;;0.57;63.15;99623.36;103576;1284;98352;-78
2022/02/01 07:45:23;;;;;;;1.70;1.70;;;;;;;0.56;62.97;99621.96;103419;1284;139622;-76
2022/02/01 07:47:50;;;;;;;1.70;1.70;;;;;;;0.57;63.07;99626.34;103552;1284;95490;-77
2022/02/01 07:50:19;;;;;;;1.70;1.70;;;;;;;0.63;63.20;99628.63;103584;1284;95413;-79
2022/02/01 07:52:46;;;;;;;1.70;1.70;;;;;;;0.69;62.83;99627.75;103460;1284;140616;-78
2022/02/01 07:55:14;;;;;;;1.50;1.50;;;;;;;0.65;62.78;99634.03;103681;1285;99411;-77
2022/02/01 07:57:42;;;;;;;1.70;1.70;;;;;;;0.65;62.92;99637.35;103566;1284;139186;-81
2022/02/01 08:00:10;;;;;;;1.70;1.70;;;;;;;0.68;62.99;99634.74;103500;1286;95185;-79
2022/02/01 08:02:38;;;;;;;1.60;1.60;;;;;;;0.96;62.92;99631.44;103472;1284;138915;-77
2022/02/01 08:05:29;;;;;;;1.50;1.50;;;;;;;1.22;62.67;99619.38;103582;1284;110459;-78
2022/02/01 08:07:59;;;;;;;1.50;1.50;;;;;;;1.41;62.26;99619.88;103557;1285;99340;-78
2022/02/01 08:10:34;;;;;;;1.50;1.50;;;;;;;1.50;62.14;99623.88;103445;1284;139083;-76
2022/02/01 08:14:27;;;;;;;1.50;1.50;;;;;;;1.34;61.92;99626.19;103650;1284;95766;-76
2022/02/01 08:18:55;;;;;;;1.60;1.60;;;;;;;1.25;62.56;99616.75;103503;1285;110608;-80
2022/02/01 08:21:45;;;;;;;1.50;1.50;;;;;;;1.38;62.57;99613.75;103417;1284;140106;-78
2022/02/01 08:24:14;;;;;;;1.60;1.60;;;;;;;1.33;61.96;99611.66;103578;1284;109554;-77
2022/02/01 08:26:42;;;;;;;1.60;1.60;;;;;;;1.34;62.42;99612.36;103349;1285;138338;-79
2022/02/01 08:29:10;;;;;;;1.60;1.60;;;;;;;1.36;62.13;99609.73;103489;1285;95248;-79
2022/02/01 08:31:47;;;;;;;1.50;1.50;;;;;;;1.30;61.90;99601.70;103626;1284;110507;-78
2022/02/01 08:34:17;;;;;;;1.50;1.50;;;;;;;1.34;61.95;99606.41;103405;1285;140490;-76
2022/02/01 08:36:45;;;;;;;1.30;1.30;;;;;;;1.38;61.77;99617.42;103583;1284;108605;-78
2022/02/01 08:39:13;;;;;;;1.40;1.40;;;;;;;1.36;61.67;99620.06;103449;1284;140828;-77
2022/02/01 08:41:41;;;;;;;1.40;1.40;;;;;;;1.39;61.96;99614.45;103665;1285;95711;-76
2022/02/01 08:44:10;;;;;;;1.40;1.40;;;;;;;1.39;61.96;99620.75;103707;1287;108694;-79
2022/02/01 08:46:38;;;;;;;1.40;1.40;;;;;;;1.41;61.67;99623.19;103453;1284;140776;-77
2022/02/01 08:49:06;;;;;;;1.50;1.50;;;;;;;1.37;61.68;99615.33;103528;1285;107748;-77
2022/02/01 08:51:40;;;;;;;1.50;1.50;;;;;;;1.41;62.05;99616.73;103475;1284;138862;-77
2022/02/01 08:54:17;;;;;;;1.40;1.40;;;;;;;1.53;61.74;99616.52;103635;1284;95166;-81
2022/02/01 08:59:32;;;;;;;1.40;1.40;;;;;;;1.78;61.85;99611.04;103581;1284;98406;-78
2022/02/01 09:02:00;;;;;;;1.40;1.40;;;;;;;1.73;60.99;99612.11;103604;1284;109720;-79
2022/02/01 09:04:28;;;;;;;1.40;1.40;;;;;;;1.70;60.92;99611.23;103488;1284;140651;-76
2022/02/01 09:06:57;;;;;;;1.50;1.50;;;;;;;1.76;61.07;99603.34;103590;1284;95252;-75
2022/02/01 09:09:26;;;;;;;1.40;1.40;;;;;;;1.89;60.81;99606.60;103465;1284;141191;-77
2022/02/01 09:11:54;;;;;;;1.30;1.30;;;;;;;1.94;60.41;99603.81;103609;1284;99799;-79
2022/02/01 09:14:22;;;;;;;1.30;1.30;;;;;;;1.93;60.22;99605.02;103540;1284;109271;-77
2022/02/01 09:16:50;;;;;;;1.30;1.30;;;;;;;1.88;59.91;99604.70;103480;1284;139136;-78
2022/02/01 09:19:19;;;;;;;1.40;1.40;;;;;;;1.80;60.16;99603.49;103698;1284;95648;-76
2022/02/01 09:21:47;;;;;;;1.40;1.40;;;;;;;1.84;60.27;99605.93;103493;1284;139187;-76
2022/02/01 09:24:15;;;;;;;1.30;1.30;;;;;;;1.95;59.83;99606.05;103657;1284;99905;-76
2022/02/01 09:26:42;;;;;;;1.30;1.30;;;;;;;2.05;59.65;99616.19;103376;1287;141477;-74
2022/02/01 09:29:19;;;;;;;1.30;1.30;;;;;;;2.09;59.54;99621.05;103560;1284;95273;-80
2022/02/01 09:31:50;;;;;;;1.40;1.40;;;;;;;2.02;59.23;99618.13;103691;1284;95350;-75
2022/02/01 09:34:19;;;;;;;1.30;1.30;;;;;;;1.93;59.36;99616.75;103598;1284;139117;-78
2022/02/01 09:36:53;;;;;;;1.40;1.40;;;;;;;1.80;59.57;99616.27;103564;1286;99457;-77
2022/02/01 09:39:22;;;;;;;1.30;1.30;;;;;;;1.83;60.08;99619.41;103447;1284;164903;-77
2022/02/01 09:41:50;;;;;;;1.30;1.30;;;;;;;1.81;59.71;99616.98;103571;1285;95200;-75
2022/02/01 09:44:20;;;;;;;1.30;1.30;;;;;;;1.80;59.63;99615.58;103559;1284;95528;-76
2022/02/01 09:46:50;;;;;;;1.30;1.30;;;;;;;1.81;59.55;99616.27;103604;1284;138202;-76
2022/02/01 09:49:22;;;;;;;1.30;1.30;;;;;;;1.88;59.93;99616.59;103710;1284;100610;-79
2022/02/01 09:51:54;;;;;;;1.30;1.30;;;;;;;1.95;60.03;99614.64;103461;1284;139036;-78
2022/02/01 09:54:26;;;;;;;1.30;1.30;;;;;;;2.14;59.78;99615.08;103502;1284;95682;-77
2022/02/01 09:56:55;;;;;;;1.30;1.30;;;;;;;2.48;59.25;99612.30;103492;1284;138405;-77
2022/02/01 09:59:32;;;;;;;1.20;1.20;;;;;;;2.60;59.05;99610.27;103453;1284;110426;-76
2022/02/01 10:02:12;;;;;;;1.20;1.20;;;;;;;2.57;59.22;99606.62;103600;1285;98989;-76
2022/02/01 10:04:41;;;;;;;1.20;1.20;;;;;;;2.42;59.73;99599.17;103578;1287;139880;-78
2022/02/01 10:07:12;;;;;;;1.20;1.20;;;;;;;2.34;60.41;99588.19;103609;1284;96376;-75
2022/02/01 10:09:56;;;;;;;1.30;1.30;;;;;;;2.24;60.40;99588.77;103626;1284;140491;-75
2022/02/01 10:12:28;;;;;;;1.20;1.20;;;;;;;2.40;60.53;99588.50;103735;1284;109696;-76
2022/02/01 10:15:10;;;;;;;1.20;1.20;;;;;;;2.43;60.19;99586.91;103499;1285;140447;-75
2022/02/01 10:17:50;;;;;;;1.30;1.30;;;;;;;2.42;60.34;99575.88;103688;1284;109388;-75
2022/02/01 10:20:18;;;;;;;1.40;1.40;;;;;;;2.32;60.34;99574.02;103876;1284;95413;-74
2022/02/01 10:22:46;;;;;;;1.30;1.30;;;;;;;2.28;60.27;99567.90;103656;1284;140319;-79
2022/02/01 10:25:30;;;;;;;1.20;1.20;;;;;;;2.28;60.11;99562.30;103590;1285;110713;-77
2022/02/01 10:28:02;;;;;;;1.20;1.20;;;;;;;2.28;60.49;99560.19;103552;1284;138191;-76
2022/02/01 10:30:49;;;;;;;1.30;1.30;;;;;;;2.53;60.29;99548.30;103688;1285;109341;-74
2022/02/01 10:36:17;;;;;;;1.20;1.20;;;;;;;2.70;58.96;99542.73;103473;1285;95230;-77
2022/02/01 10:38:45;;;;;;;1.20;1.20;;;;;;;2.76;59.06;99538.66;103594;1285;140162;-75
2022/02/01 10:41:14;;;;;;;1.10;1.10;;;;;;;2.93;59.07;99535.70;103558;1285;99044;-79
2022/02/01 10:43:42;;;;;;;1.10;1.10;;;;;;;3.06;59.54;99521.19;103730;1284;109443;-75
2022/02/01 10:46:16;;;;;;;1.00;1.00;;;;;;;3.31;58.60;99515.33;103450;1284;138031;-77
2022/02/01 10:48:48;;;;;;;1.20;1.20;;;;;;;3.41;57.92;99512.92;103609;1284;95684;-75
2022/02/01 10:51:21;;;;;;;1.20;1.20;;;;;;;3.45;58.11;99512.01;103502;1284;137955;-74
2022/02/01 10:53:56;;;;;;;1.00;1.00;;;;;;;3.34;57.95;99506.87;103604;1284;98407;-75
2022/02/01 10:56:24;;;;;;;1.10;1.10;;;;;;;3.21;58.14;99501.41;103530;1284;109545;-78
2022/02/01 10:58:52;;;;;;;1.10;1.10;;;;;;;3.25;58.32;99497.85;103519;1284;139479;-79
2022/02/01 11:01:23;;;;;;;1.00;1.00;;;;;;;3.19;58.30;99491.77;103701;1284;95254;-74
2022/02/01 11:03:51;;;;;;;1.00;1.00;;;;;;;3.07;57.96;99491.02;103642;1284;140177;-82
2022/02/01 11:06:19;;;;;;;1.00;1.00;;;;;;;2.92;58.33;99492.75;104113;1284;100381;-76
2022/02/01 11:08:47;;;;;;;1.20;1.20;;;;;;;2.81;58.57;99487.06;103448;1284;140364;-79
2022/02/01 11:11:35;;;;;;;1.10;1.10;;;;;;;2.77;58.99;99487.46;103563;1284;95261;-75
2022/02/01 11:14:03;;;;;;;1.30;1.30;;;;;;;2.77;59.48;99484.81;103495;1285;95267;-75
2022/02/01 11:16:31;;;;;;;1.10;1.10;;;;;;;2.93;59.21;99481.35;103476;1284;138950;-76
2022/02/01 11:19:07;;;;;;;1.20;1.20;;;;;;;3.00;59.46;99478.11;103586;1287;98976;-78
2022/02/01 11:21:53;;;;;;;1.10;1.10;;;;;;;3.01;58.93;99477.76;103527;1284;138912;-77
2022/02/01 11:24:44;;;;;;;1.30;1.30;;;;;;;3.03;59.51;99470.20;103581;1285;95224;-75
2022/02/01 11:27:17;;;;;;;1.10;1.10;;;;;;;3.04;59.41;99469.30;103573;1284;139843;-76
2022/02/01 11:32:34;;;;;;;1.10;1.10;;;;;;;3.16;59.02;99459.88;103698;1284;99734;-75
2022/02/01 11:35:13;;;;;;;1.10;1.10;;;;;;;3.23;58.58;99452.27;103734;1287;138396;-77
2022/02/01 11:38:05;;;;;;;1.20;1.20;;;;;;;3.16;58.66;99440.77;104174;1284;95181;-76
2022/02/01 11:40:37;;;;;;;1.10;1.10;;;;;;;3.26;59.08;99442.23;103501;1284;140909;-78
2022/02/01 11:43:26;;;;;;;1.10;1.10;;;;;;;3.23;58.33;99433.13;103598;1285;110249;-75
2022/02/01 11:46:04;;;;;;;1.10;1.10;;;;;;;3.24;58.17;99434.17;103540;1285;139892;-77
2022/02/01 11:48:34;;;;;;;1.00;1.00;;;;;;;3.27;57.50;99430.45;103662;1287;108826;-76
2022/02/01 11:51:10;;;;;;;1.00;1.00;;;;;;;3.21;57.66;99424.91;103477;1288;138765;-76
2022/02/01 11:53:44;;;;;;;1.10;1.10;;;;;;;3.22;57.41;99425.08;103820;1284;95096;-75
2022/02/01 11:56:16;;;;;;;1.10;1.10;;;;;;;3.20;57.07;99419.48;103755;1284;110418;-75
2022/02/01 11:58:47;;;;;;;1.20;1.20;;;;;;;3.16;56.52;99412.17;104193;1283;140039;-75
2022/02/01 12:01:21;;;;;;;1.20;1.20;;;;;;;3.20;56.87;99407.73;103718;1284;106631;-73
2022/02/01 12:04:02;;;;;;;1.20;1.20;;;;;;;3.30;57.57;99403.59;103587;1284;140015;-76
2022/02/01 12:06:41;;;;;;;1.20;1.20;;;;;;;3.37;57.16;99393.30;103774;1284;95453;-76
2022/02/01 12:09:15;;;;;;;1.20;1.20;;;;;;;3.41;56.52;99397.83;103581;1284;139550;-75
2022/02/01 12:11:43;;;;;;;1.10;1.10;;;;;;;3.42;56.69;99389.92;103651;1284;98577;-77
2022/02/01 12:14:11;;;;;;;1.20;1.20;;;;;;;3.41;56.24;99388.52;103715;1284;109354;-77
2022/02/01 12:16:49;;;;;;;1.20;1.20;;;;;;;3.35;56.13;99381.58;103763;1284;139287;-76
2022/02/01 12:19:50;;;;;;;1.20;1.20;;;;;;;3.35;56.86;99386.84;103806;1284;95596;-76
2022/02/01 12:23:19;;;;;;;1.30;1.30;;;;;;;3.31;56.85;99387.61;103668;1283;139471;-76
2022/02/01 12:25:47;;;;;;;1.10;1.10;;;;;;;3.26;56.23;99385.90;103663;1284;98415;-76
2022/02/01 12:28:25;;;;;;;1.20;1.20;;;;;;;3.20;56.51;99389.50;103637;1284;140410;-76
2022/02/01 12:31:12;;;;;;;1.20;1.20;;;;;;;3.21;56.80;99386.15;103761;1284;95181;-77
2022/02/01 12:33:42;;;;;;;1.20;1.20;;;;;;;3.19;56.44;99381.27;103622;1284;139097;-75
2022/02/01 12:36:12;;;;;;;1.20;1.20;;;;;;;3.22;56.89;99381.95;104204;1284;111424;-77
2022/02/01 12:38:41;;;;;;;1.10;1.10;;;;;;;3.24;56.39;99377.52;103776;1284;99625;-74
2022/02/01 12:41:14;;;;;;;1.20;1.20;;;;;;;3.19;56.42;99377.94;104375;1284;138018;-76
2022/02/01 12:45:44;;;;;;;1.30;1.30;;;;;;;3.08;56.90;99373.15;103658;1285;95259;-76
2022/02/01 12:46:56;;;;;;;1.20;1.20;;;;;;;3.06;56.68;99368.63;104618;1284;139533;-79
2022/02/01 12:49:49;;;;;;;1.20;1.20;;;;;;;2.99;56.82;99367.83;103807;1284;110479;-77
2022/02/01 12:52:25;;;;;;;1.20;1.20;;;;;;;2.94;57.03;99360.54;103584;1284;139194;-76
2022/02/01 12:55:06;;;;;;;1.20;1.20;;;;;;;2.91;57.55;99357.06;103696;1284;109559;-75
2022/02/01 12:57:53;;;;;;;1.20;1.20;;;;;;;2.97;57.62;99350.84;103597;1284;140407;-75
2022/02/01 13:00:24;;;;;;;1.20;1.20;;;;;;;3.02;57.68;99353.95;103952;1285;95256;-77
2022/02/01 13:02:56;;;;;;;1.20;1.20;;;;;;;3.09;57.77;99353.52;103509;1284;139927;-77
2022/02/01 13:05:24;;;;;;;1.20;1.20;;;;;;;3.11;57.68;99352.27;103945;1284;98375;-77
2022/02/01 13:15:49;;;;;;;1.30;1.30;;;;;;;2.91;58.08;99330.23;103605;1284;139729;-75
2022/02/01 13:20:03;;;;;;;1.10;1.10;;;;;;;3.04;58.15;99328.14;103599;1285;99876;-76
2022/02/01 13:21:20;;;;;;;1.20;1.20;;;;;;;2.99;58.82;99332.42;103602;1284;138910;-77
2022/02/01 13:23:54;;;;;;;1.20;1.20;;;;;;;2.91;59.46;99333.21;103806;1283;95282;-75
2022/02/01 13:26:26;;;;;;;1.30;1.30;;;;;;;2.84;60.09;99328.23;103953;1284;95272;-75
2022/02/01 13:29:05;;;;;;;1.20;1.20;;;;;;;2.71;60.86;99324.69;103971;1284;140505;-75
2022/02/01 13:31:35;;;;;;;1.10;1.10;;;;;;;2.71;61.50;99325.39;103666;1285;100544;-75